sensor_id;sensor_type;location;lat;lon;timestamp;pressure;altitude;pressure_sealevel;temperature;humidity
1401;BME280;46518;48.842;8.926;2022-08-21T00:00:31;97215.03;;;19.53;50.41
1401;BME280;46518;48.842;8.926;2022-08-21T00:03:07;97224.94;;;19.53;50.93
1401;BME280;46518;48.842;8.926;2022-08-21T00:05:38;97228.78;;;19.47;51.33
1401;BME280;46518;48.842;8.926;2022-08-21T00:08:07;97218.16;;;19.33;51.75
1401;BME280;46518;48.842;8.926;2022-08-21T00:10:35;97219.34;;;19.27;52.02
1401;BME280;46518;48.842;8.926;2022-08-21T00:13:06;97213.72;;;19.28;52.14
1401;BME280;46518;48.842;8.926;2022-08-21T00:15:36;97222.81;;;19.27;52.17
1401;BME280;46518;48.842;8.926;2022-08-21T00:18:06;97225.50;;;19.27;52.39
1401;BME280;46518;48.842;8.926;2022-08-21T00:20:34;97221.53;;;19.25;52.52
1401;BME280;46518;48.842;8.926;2022-08-21T00:23:03;97225.84;;;19.34;52.37
1401;BME280;46518;48.842;8.926;2022-08-21T00:25:31;97216.56;;;19.32;52.28
1401;BME280;46518;48.842;8.926;2022-08-21T00:27:59;97208.56;;;19.32;52.47
1401;BME280;46518;48.842;8.926;2022-08-21T00:30:30;97214.50;;;19.29;52.58
1401;BME280;46518;48.842;8.926;2022-08-21T00:32:59;97214.22;;;19.30;52.47
1401;BME280;46518;48.842;8.926;2022-08-21T00:35:34;97209.66;;;19.31;52.39
1401;BME280;46518;48.842;8.926;2022-08-21T00:38:03;97210.03;;;19.38;52.50
1401;BME280;46518;48.842;8.926;2022-08-21T00:40:36;97210.22;;;19.42;52.65
1401;BME280;46518;48.842;8.926;2022-08-21T00:43:07;97212.41;;;19.39;52.12
1401;BME280;46518;48.842;8.926;2022-08-21T00:45:38;97190.31;;;19.25;52.36
1401;BME280;46518;48.842;8.926;2022-08-21T00:48:06;97204.41;;;19.39;52.50
1401;BME280;46518;48.842;8.926;2022-08-21T00:50:38;97203.59;;;19.39;52.44
1401;BME280;46518;48.842;8.926;2022-08-21T00:53:10;97209.81;;;19.48;52.38
1401;BME280;46518;48.842;8.926;2022-08-21T00:55:39;97202.31;;;19.50;52.11
1401;BME280;46518;48.842;8.926;2022-08-21T00:58:11;97185.63;;;19.45;52.01
1401;BME280;46518;48.842;8.926;2022-08-21T01:00:47;97198.75;;;19.41;52.21
1401;BME280;46518;48.842;8.926;2022-08-21T01:03:18;97199.66;;;19.36;52.40
1401;BME280;46518;48.842;8.926;2022-08-21T01:05:50;97175.97;;;19.21;52.75
1401;BME280;46518;48.842;8.926;2022-08-21T01:08:19;97190.59;;;19.24;52.97
1401;BME280;46518;48.842;8.926;2022-08-21T01:10:49;97192.19;;;19.11;53.09
1401;BME280;46518;48.842;8.926;2022-08-21T01:13:25;97188.75;;;19.10;53.28
1401;BME280;46518;48.842;8.926;2022-08-21T01:15:58;97192.41;;;19.01;53.65
1401;BME280;46518;48.842;8.926;2022-08-21T01:18:27;97189.34;;;18.93;53.95
1401;BME280;46518;48.842;8.926;2022-08-21T01:21:06;97189.72;;;18.87;53.98
1401;BME280;46518;48.842;8.926;2022-08-21T01:23:40;97195.06;;;18.87;54.26
1401;BME280;46518;48.842;8.926;2022-08-21T01:26:09;97197.44;;;18.88;54.04
1401;BME280;46518;48.842;8.926;2022-08-21T01:28:42;97195.66;;;19.11;53.77
1401;BME280;46518;48.842;8.926;2022-08-21T01:31:13;97192.78;;;19.08;53.71
1401;BME280;46518;48.842;8.926;2022-08-21T01:33:45;97184.69;;;18.99;53.82
1401;BME280;46518;48.842;8.926;2022-08-21T01:36:15;97188.94;;;18.86;54.69
1401;BME280;46518;48.842;8.926;2022-08-21T01:38:43;97185.88;;;18.79;54.73
1401;BME280;46518;48.842;8.926;2022-08-21T01:41:11;97187.97;;;18.82;54.95
1401;BME280;46518;48.842;8.926;2022-08-21T01:43:40;97176.06;;;18.74;55.23
1401;BME280;46518;48.842;8.926;2022-08-21T01:46:08;97180.44;;;18.70;55.32
1401;BME280;46518;48.842;8.926;2022-08-21T01:48:37;97183.69;;;18.67;55.78
1401;BME280;46518;48.842;8.926;2022-08-21T01:51:07;97179.94;;;18.68;55.29
1401;BME280;46518;48.842;8.926;2022-08-21T01:53:40;97182.78;;;18.72;55.22
1401;BME280;46518;48.842;8.926;2022-08-21T01:59:11;97179.16;;;18.82;54.63
1401;BME280;46518;48.842;8.926;2022-08-21T02:01:39;97175.47;;;18.64;55.20
1401;BME280;46518;48.842;8.926;2022-08-21T02:04:08;97173.59;;;18.50;55.70
1401;BME280;46518;48.842;8.926;2022-08-21T02:06:37;97172.72;;;18.55;55.53
1401;BME280;46518;48.842;8.926;2022-08-21T02:09:09;97176.25;;;18.37;56.10
1401;BME280;46518;48.842;8.926;2022-08-21T02:11:38;97173.28;;;18.38;56.25
1401;BME280;46518;48.842;8.926;2022-08-21T02:14:07;97168.16;;;18.28;56.49
1401;BME280;46518;48.842;8.926;2022-08-21T02:16:35;97165.84;;;18.21;56.83
1401;BME280;46518;48.842;8.926;2022-08-21T02:19:04;97167.81;;;18.16;57.04
1401;BME280;46518;48.842;8.926;2022-08-21T02:21:32;97169.69;;;18.15;57.04
1401;BME280;46518;48.842;8.926;2022-08-21T02:24:01;97159.31;;;18.00;57.73
1401;BME280;46518;48.842;8.926;2022-08-21T02:26:31;97168.44;;;17.94;57.90
1401;BME280;46518;48.842;8.926;2022-08-21T02:29:00;97163.63;;;17.77;58.22
1401;BME280;46518;48.842;8.926;2022-08-21T02:31:29;97166.00;;;17.78;58.13
1401;BME280;46518;48.842;8.926;2022-08-21T02:33:58;97163.94;;;17.75;58.30
1401;BME280;46518;48.842;8.926;2022-08-21T02:36:26;97159.13;;;17.77;58.33
1401;BME280;46518;48.842;8.926;2022-08-21T02:38:55;97163.19;;;17.69;58.44
1401;BME280;46518;48.842;8.926;2022-08-21T02:41:23;97164.38;;;17.63;58.55
1401;BME280;46518;48.842;8.926;2022-08-21T02:43:53;97161.19;;;17.61;58.71
1401;BME280;46518;48.842;8.926;2022-08-21T02:46:22;97165.59;;;17.52;59.12
1401;BME280;46518;48.842;8.926;2022-08-21T02:48:50;97164.28;;;17.50;59.46
1401;BME280;46518;48.842;8.926;2022-08-21T02:51:19;97163.75;;;17.53;59.31
1401;BME280;46518;48.842;8.926;2022-08-21T02:53:49;97163.75;;;17.53;59.46
1401;BME280;46518;48.842;8.926;2022-08-21T02:56:20;97168.31;;;17.47;59.43
1401;BME280;46518;48.842;8.926;2022-08-21T02:58:51;97164.66;;;17.43;59.52
1401;BME280;46518;48.842;8.926;2022-08-21T03:01:22;97164.81;;;17.52;59.26
1401;BME280;46518;48.842;8.926;2022-08-21T03:03:50;97162.38;;;17.55;59.16
1401;BME280;46518;48.842;8.926;2022-08-21T03:06:19;97159.84;;;17.64;59.25
1401;BME280;46518;48.842;8.926;2022-08-21T03:08:48;97163.28;;;17.64;59.17
1401;BME280;46518;48.842;8.926;2022-08-21T03:11:17;97157.56;;;17.57;59.18
1401;BME280;46518;48.842;8.926;2022-08-21T03:13:46;97164.66;;;17.62;59.16
1401;BME280;46518;48.842;8.926;2022-08-21T03:16:14;97165.00;;;17.74;59.24
1401;BME280;46518;48.842;8.926;2022-08-21T03:18:44;97158.88;;;17.74;58.85
1401;BME280;46518;48.842;8.926;2022-08-21T03:21:12;97162.41;;;17.69;58.86
1401;BME280;46518;48.842;8.926;2022-08-21T03:23:40;97155.28;;;17.64;58.98
1401;BME280;46518;48.842;8.926;2022-08-21T03:26:09;97164.72;;;17.57;59.17
1401;BME280;46518;48.842;8.926;2022-08-21T03:28:38;97164.81;;;17.52;59.26
1401;BME280;46518;48.842;8.926;2022-08-21T03:31:06;97167.47;;;17.52;59.70
1401;BME280;46518;48.842;8.926;2022-08-21T03:33:35;97161.34;;;17.51;59.97
1401;BME280;46518;48.842;8.926;2022-08-21T03:36:06;97159.78;;;17.50;60.35
1401;BME280;46518;48.842;8.926;2022-08-21T03:38:35;97163.94;;;17.56;60.34
1401;BME280;46518;48.842;8.926;2022-08-21T03:41:05;97161.88;;;17.53;59.71
1401;BME280;46518;48.842;8.926;2022-08-21T03:43:34;97170.28;;;17.60;59.69
1401;BME280;46518;48.842;8.926;2022-08-21T03:46:03;97168.03;;;17.67;59.93
1401;BME280;46518;48.842;8.926;2022-08-21T03:48:33;97162.91;;;17.71;60.10
1401;BME280;46518;48.842;8.926;2022-08-21T03:51:02;97163.69;;;17.72;60.22
1401;BME280;46518;48.842;8.926;2022-08-21T03:53:32;97163.44;;;17.73;60.10
1401;BME280;46518;48.842;8.926;2022-08-21T03:56:01;97169.81;;;17.72;60.35
1401;BME280;46518;48.842;8.926;2022-08-21T03:58:30;97170.63;;;17.73;60.46
1401;BME280;46518;48.842;8.926;2022-08-21T04:01:00;97176.31;;;17.66;60.45
1401;BME280;46518;48.842;8.926;2022-08-21T04:03:28;97171.84;;;17.61;60.39
1401;BME280;46518;48.842;8.926;2022-08-21T04:05:57;97177.25;;;17.56;60.82
1401;BME280;46518;48.842;8.926;2022-08-21T04:08:25;97184.22;;;17.52;60.44
1401;BME280;46518;48.842;8.926;2022-08-21T04:10:56;97176.69;;;17.40;60.40
1401;BME280;46518;48.842;8.926;2022-08-21T04:13:26;97190.13;;;17.30;60.64
1401;BME280;46518;48.842;8.926;2022-08-21T04:15:56;97183.88;;;17.40;60.37
1401;BME280;46518;48.842;8.926;2022-08-21T04:18:24;97194.00;;;17.38;60.51
1401;BME280;46518;48.842;8.926;2022-08-21T04:20:53;97193.00;;;17.34;60.44
1401;BME280;46518;48.842;8.926;2022-08-21T04:23:24;97195.72;;;17.29;60.70
1401;BME280;46518;48.842;8.926;2022-08-21T04:25:55;97193.84;;;17.29;60.69
1401;BME280;46518;48.842;8.926;2022-08-21T04:28:26;97192.22;;;17.09;60.70
1401;BME280;46518;48.842;8.926;2022-08-21T04:30:56;97201.38;;;17.03;61.12
1401;BME280;46518;48.842;8.926;2022-08-21T04:33:25;97202.41;;;16.83;61.77
1401;BME280;46518;48.842;8.926;2022-08-21T04:35:53;97205.47;;;16.66;62.62
1401;BME280;46518;48.842;8.926;2022-08-21T04:38:22;97208.44;;;16.59;62.73
1401;BME280;46518;48.842;8.926;2022-08-21T04:40:50;97206.25;;;16.43;63.46
1401;BME280;46518;48.842;8.926;2022-08-21T04:43:20;97212.19;;;16.29;64.04
1401;BME280;46518;48.842;8.926;2022-08-21T04:45:51;97211.19;;;16.25;64.81
1401;BME280;46518;48.842;8.926;2022-08-21T04:48:21;97211.09;;;16.35;64.71
1401;BME280;46518;48.842;8.926;2022-08-21T04:50:54;97209.44;;;16.39;64.66
1401;BME280;46518;48.842;8.926;2022-08-21T04:53:28;97217.66;;;16.43;64.81
1401;BME280;46518;48.842;8.926;2022-08-21T04:56:03;97217.09;;;16.46;64.62
1401;BME280;46518;48.842;8.926;2022-08-21T04:58:34;97211.41;;;16.58;64.55
1401;BME280;46518;48.842;8.926;2022-08-21T05:01:04;97214.31;;;16.56;64.69
1401;BME280;46518;48.842;8.926;2022-08-21T05:03:36;97213.50;;;16.61;64.55
1401;BME280;46518;48.842;8.926;2022-08-21T05:06:07;97217.78;;;16.57;65.11
1401;BME280;46518;48.842;8.926;2022-08-21T05:08:37;97215.47;;;16.50;65.77
1401;BME280;46518;48.842;8.926;2022-08-21T05:11:06;97213.66;;;16.46;66.27
1401;BME280;46518;48.842;8.926;2022-08-21T05:13:36;97224.53;;;16.44;66.56
1401;BME280;46518;48.842;8.926;2022-08-21T05:16:04;97227.44;;;16.48;66.69
1401;BME280;46518;48.842;8.926;2022-08-21T05:18:33;97227.16;;;16.49;66.94
1401;BME280;46518;48.842;8.926;2022-08-21T05:21:01;97227.09;;;16.54;66.91
1401;BME280;46518;48.842;8.926;2022-08-21T05:23:29;97231.34;;;16.55;66.88
1401;BME280;46518;48.842;8.926;2022-08-21T05:25:57;97235.22;;;16.68;66.99
1401;BME280;46518;48.842;8.926;2022-08-21T05:28:26;97234.19;;;16.64;67.00
1401;BME280;46518;48.842;8.926;2022-08-21T05:30:55;97232.09;;;16.61;67.15
1401;BME280;46518;48.842;8.926;2022-08-21T05:33:24;97240.47;;;16.44;68.06
1401;BME280;46518;48.842;8.926;2022-08-21T05:35:53;97235.94;;;16.45;68.29
1401;BME280;46518;48.842;8.926;2022-08-21T05:38:23;97239.91;;;16.47;68.54
1401;BME280;46518;48.842;8.926;2022-08-21T05:40:51;97242.25;;;16.54;68.54
1401;BME280;46518;48.842;8.926;2022-08-21T05:43:19;97233.50;;;16.53;68.24
1401;BME280;46518;48.842;8.926;2022-08-21T05:45:48;97249.47;;;16.77;67.70
1401;BME280;46518;48.842;8.926;2022-08-21T05:48:20;97252.13;;;16.83;67.34
1401;BME280;46518;48.842;8.926;2022-08-21T05:50:50;97247.53;;;16.88;67.04
1401;BME280;46518;48.842;8.926;2022-08-21T05:53:19;97243.44;;;16.96;67.01
1401;BME280;46518;48.842;8.926;2022-08-21T05:55:48;97243.59;;;17.04;67.00
1401;BME280;46518;48.842;8.926;2022-08-21T05:58:18;97246.50;;;17.08;66.95
1401;BME280;46518;48.842;8.926;2022-08-21T06:00:49;97245.94;;;17.11;67.28
1401;BME280;46518;48.842;8.926;2022-08-21T06:03:21;97247.97;;;17.19;67.27
1401;BME280;46518;48.842;8.926;2022-08-21T06:05:50;97243.09;;;17.27;66.81
1401;BME280;46518;48.842;8.926;2022-08-21T06:08:20;97247.78;;;17.35;65.91
1401;BME280;46518;48.842;8.926;2022-08-21T06:10:49;97251.09;;;17.45;65.64
1401;BME280;46518;48.842;8.926;2022-08-21T06:13:18;97243.69;;;17.61;65.78
1401;BME280;46518;48.842;8.926;2022-08-21T06:15:47;97244.53;;;17.81;65.50
1401;BME280;46518;48.842;8.926;2022-08-21T06:18:15;97247.97;;;18.00;64.82
1401;BME280;46518;48.842;8.926;2022-08-21T06:20:45;97254.78;;;18.06;64.52
1401;BME280;46518;48.842;8.926;2022-08-21T06:23:13;97248.25;;;18.18;64.11
1401;BME280;46518;48.842;8.926;2022-08-21T06:25:42;97248.66;;;18.25;63.93
1401;BME280;46518;48.842;8.926;2022-08-21T06:28:10;97257.97;;;18.41;63.44
1401;BME280;46518;48.842;8.926;2022-08-21T06:30:39;97249.81;;;18.51;62.90
1401;BME280;46518;48.842;8.926;2022-08-21T06:33:08;97248.72;;;18.52;62.87
1401;BME280;46518;48.842;8.926;2022-08-21T06:35:36;97236.00;;;18.63;62.74
1401;BME280;46518;48.842;8.926;2022-08-21T06:38:08;97240.31;;;18.78;62.54
1401;BME280;46518;48.842;8.926;2022-08-21T06:40:39;97240.28;;;18.92;62.45
1401;BME280;46518;48.842;8.926;2022-08-21T06:43:37;97248.13;;;19.02;61.62
1401;BME280;46518;48.842;8.926;2022-08-21T06:46:07;97237.66;;;19.06;61.19
1401;BME280;46518;48.842;8.926;2022-08-21T06:48:35;97234.78;;;19.16;60.47
1401;BME280;46518;48.842;8.926;2022-08-21T06:51:04;97229.22;;;19.26;59.98
1401;BME280;46518;48.842;8.926;2022-08-21T06:53:34;97229.63;;;19.33;60.03
1401;BME280;46518;48.842;8.926;2022-08-21T06:56:03;97237.34;;;19.35;59.51
1401;BME280;46518;48.842;8.926;2022-08-21T06:58:31;97231.78;;;19.45;59.43
1401;BME280;46518;48.842;8.926;2022-08-21T07:00:59;97225.22;;;19.51;58.43
1401;BME280;46518;48.842;8.926;2022-08-21T07:03:32;97232.72;;;19.63;58.27
1401;BME280;46518;48.842;8.926;2022-08-21T07:06:00;97225.13;;;19.70;58.63
1401;BME280;46518;48.842;8.926;2022-08-21T07:08:29;97228.66;;;19.79;57.06
1401;BME280;46518;48.842;8.926;2022-08-21T07:11:00;97223.09;;;19.90;56.43
1401;BME280;46518;48.842;8.926;2022-08-21T07:13:29;97227.09;;;20.01;56.68
1401;BME280;46518;48.842;8.926;2022-08-21T07:15:57;97227.75;;;20.07;56.56
1401;BME280;46518;48.842;8.926;2022-08-21T07:18:30;97232.38;;;20.15;55.98
1401;BME280;46518;48.842;8.926;2022-08-21T07:21:00;97226.16;;;20.28;56.09
1401;BME280;46518;48.842;8.926;2022-08-21T07:23:30;97221.47;;;20.34;56.08
1401;BME280;46518;48.842;8.926;2022-08-21T07:26:01;97219.81;;;20.46;56.40
1401;BME280;46518;48.842;8.926;2022-08-21T07:28:33;97226.22;;;20.59;55.84
1401;BME280;46518;48.842;8.926;2022-08-21T07:31:03;97227.03;;;20.68;55.73
1401;BME280;46518;48.842;8.926;2022-08-21T07:33:33;97227.69;;;20.74;55.49
1401;BME280;46518;48.842;8.926;2022-08-21T07:36:02;97220.50;;;20.83;55.88
1401;BME280;46518;48.842;8.926;2022-08-21T07:38:31;97227.63;;;20.97;55.00
1401;BME280;46518;48.842;8.926;2022-08-21T07:41:01;97224.28;;;20.91;54.30
1401;BME280;46518;48.842;8.926;2022-08-21T07:43:30;97222.38;;;20.83;52.75
1401;BME280;46518;48.842;8.926;2022-08-21T07:45:58;97220.19;;;20.85;52.80
1401;BME280;46518;48.842;8.926;2022-08-21T07:48:26;97223.72;;;21.03;53.32
1401;BME280;46518;48.842;8.926;2022-08-21T07:50:55;97216.50;;;21.12;53.83
1401;BME280;46518;48.842;8.926;2022-08-21T07:53:23;97214.31;;;21.23;54.54
1401;BME280;46518;48.842;8.926;2022-08-21T07:55:51;97219.38;;;21.33;54.71
1401;BME280;46518;48.842;8.926;2022-08-21T07:58:21;97216.75;;;21.42;54.24
1401;BME280;46518;48.842;8.926;2022-08-21T08:00:49;97212.97;;;21.51;53.72
1401;BME280;46518;48.842;8.926;2022-08-21T08:03:17;97215.03;;;21.54;52.97
1401;BME280;46518;48.842;8.926;2022-08-21T08:05:55;97212.19;;;21.68;52.35
1401;BME280;46518;48.842;8.926;2022-08-21T08:08:23;97211.56;;;21.80;51.50
1401;BME280;46518;48.842;8.926;2022-08-21T08:10:52;97215.03;;;21.89;51.75
1401;BME280;46518;48.842;8.926;2022-08-21T08:13:22;97215.50;;;22.00;51.75
1401;BME280;46518;48.842;8.926;2022-08-21T08:15:51;97209.66;;;22.07;51.81
1401;BME280;46518;48.842;8.926;2022-08-21T08:18:19;97216.25;;;22.18;51.36
1401;BME280;46518;48.842;8.926;2022-08-21T08:20:47;97201.47;;;22.21;51.44
1401;BME280;46518;48.842;8.926;2022-08-21T08:23:16;97205.69;;;22.30;51.34
1401;BME280;46518;48.842;8.926;2022-08-21T08:25:44;97202.72;;;22.32;50.72
1401;BME280;46518;48.842;8.926;2022-08-21T08:28:13;97201.91;;;22.31;48.95
1401;BME280;46518;48.842;8.926;2022-08-21T08:30:45;97199.22;;;22.40;49.27
1401;BME280;46518;48.842;8.926;2022-08-21T08:33:15;97198.06;;;22.50;50.17
1401;BME280;46518;48.842;8.926;2022-08-21T08:35:45;97196.78;;;22.56;50.31
1401;BME280;46518;48.842;8.926;2022-08-21T08:38:14;97202.78;;;22.61;49.93
1401;BME280;46518;48.842;8.926;2022-08-21T08:40:53;97187.59;;;22.66;49.52
1401;BME280;46518;48.842;8.926;2022-08-21T08:43:23;97174.97;;;22.66;47.39
1401;BME280;46518;48.842;8.926;2022-08-21T08:45:54;97184.72;;;22.79;47.21
1401;BME280;46518;48.842;8.926;2022-08-21T08:48:35;97182.16;;;22.83;46.63
1401;BME280;46518;48.842;8.926;2022-08-21T08:51:11;97176.28;;;22.90;46.74
1401;BME280;46518;48.842;8.926;2022-08-21T08:53:48;97178.78;;;22.95;46.97
1401;BME280;46518;48.842;8.926;2022-08-21T08:56:20;97177.50;;;23.01;46.65
1401;BME280;46518;48.842;8.926;2022-08-21T08:58:50;97168.94;;;23.08;45.90
1401;BME280;46518;48.842;8.926;2022-08-21T09:01:21;97171.44;;;23.13;46.13
1401;BME280;46518;48.842;8.926;2022-08-21T09:03:51;97171.56;;;23.16;45.20
1401;BME280;46518;48.842;8.926;2022-08-21T09:06:36;97176.59;;;23.27;44.81
1401;BME280;46518;48.842;8.926;2022-08-21T09:09:14;97168.34;;;23.32;44.57
1401;BME280;46518;48.842;8.926;2022-08-21T09:11:48;97167.31;;;23.36;44.64
1401;BME280;46518;48.842;8.926;2022-08-21T09:14:26;97166.81;;;23.43;45.24
1401;BME280;46518;48.842;8.926;2022-08-21T09:17:03;97155.88;;;23.48;44.48
1401;BME280;46518;48.842;8.926;2022-08-21T09:19:44;97154.56;;;23.54;43.75
1401;BME280;46518;48.842;8.926;2022-08-21T09:22:19;97159.75;;;23.59;44.55
1401;BME280;46518;48.842;8.926;2022-08-21T09:24:59;97160.44;;;23.68;44.85
1401;BME280;46518;48.842;8.926;2022-08-21T09:27:31;97151.44;;;23.73;44.72
1401;BME280;46518;48.842;8.926;2022-08-21T09:29:59;97154.06;;;23.82;44.47
1401;BME280;46518;48.842;8.926;2022-08-21T09:32:34;97143.88;;;23.87;43.75
1401;BME280;46518;48.842;8.926;2022-08-21T09:35:08;97152.50;;;23.93;44.21
1401;BME280;46518;48.842;8.926;2022-08-21T09:37:48;97157.47;;;24.03;44.40
1401;BME280;46518;48.842;8.926;2022-08-21T09:40:26;97143.50;;;24.10;44.29
1401;BME280;46518;48.842;8.926;2022-08-21T09:43:00;97149.88;;;24.18;43.08
1401;BME280;46518;48.842;8.926;2022-08-21T09:45:29;97144.44;;;24.26;43.45
1401;BME280;46518;48.842;8.926;2022-08-21T09:48:13;97136.47;;;24.30;42.73
1401;BME280;46518;48.842;8.926;2022-08-21T09:50:42;97141.75;;;24.26;42.04
1401;BME280;46518;48.842;8.926;2022-08-21T09:53:17;97146.09;;;24.31;42.43
1401;BME280;46518;48.842;8.926;2022-08-21T09:55:50;97135.78;;;24.33;42.67
1401;BME280;46518;48.842;8.926;2022-08-21T09:58:39;97138.38;;;24.29;42.16
1401;BME280;46518;48.842;8.926;2022-08-21T10:01:15;97143.53;;;24.35;41.67
1401;BME280;46518;48.842;8.926;2022-08-21T10:03:46;97132.81;;;24.47;41.42
1401;BME280;46518;48.842;8.926;2022-08-21T10:06:22;97133.69;;;24.51;41.28
1401;BME280;46518;48.842;8.926;2022-08-21T10:08:51;97132.84;;;24.59;41.38
1401;BME280;46518;48.842;8.926;2022-08-21T10:11:31;97130.69;;;24.65;41.84
1401;BME280;46518;48.842;8.926;2022-08-21T10:14:06;97135.84;;;24.70;41.83
1401;BME280;46518;48.842;8.926;2022-08-21T10:16:46;97127.44;;;24.59;39.95
1401;BME280;46518;48.842;8.926;2022-08-21T10:19:29;97127.91;;;24.61;40.74
1401;BME280;46518;48.842;8.926;2022-08-21T10:22:07;97127.22;;;24.64;40.84
1401;BME280;46518;48.842;8.926;2022-08-21T10:24:44;97122.41;;;24.70;41.01
1401;BME280;46518;48.842;8.926;2022-08-21T10:27:20;97127.44;;;24.71;41.18
1401;BME280;46518;48.842;8.926;2022-08-21T10:29:56;97122.16;;;24.63;39.48
1401;BME280;46518;48.842;8.926;2022-08-21T10:32:46;97107.47;;;24.60;39.22
1401;BME280;46518;48.842;8.926;2022-08-21T10:35:22;97112.75;;;24.57;38.48
1401;BME280;46518;48.842;8.926;2022-08-21T10:38:03;97111.41;;;24.63;39.74
1401;BME280;46518;48.842;8.926;2022-08-21T10:40:40;97111.53;;;24.66;39.42
1401;BME280;46518;48.842;8.926;2022-08-21T10:43:20;97107.16;;;24.74;40.08
1401;BME280;46518;48.842;8.926;2022-08-21T10:45:57;97113.84;;;24.80;40.01
1401;BME280;46518;48.842;8.926;2022-08-21T10:48:31;97108.59;;;24.84;39.60
1401;BME280;46518;48.842;8.926;2022-08-21T10:51:10;97106.00;;;24.87;39.81
1401;BME280;46518;48.842;8.926;2022-08-21T10:54:07;97104.53;;;24.90;40.39
1401;BME280;46518;48.842;8.926;2022-08-21T10:56:49;97097.47;;;24.85;39.04
1401;BME280;46518;48.842;8.926;2022-08-21T10:59:25;97096.59;;;24.81;37.82
1401;BME280;46518;48.842;8.926;2022-08-21T11:01:59;97090.31;;;24.77;38.04
1401;BME280;46518;48.842;8.926;2022-08-21T11:04:37;97095.47;;;24.70;39.69
1401;BME280;46518;48.842;8.926;2022-08-21T11:07:20;97095.03;;;24.68;38.67
1401;BME280;46518;48.842;8.926;2022-08-21T11:09:51;97094.09;;;24.88;39.31
1401;BME280;46518;48.842;8.926;2022-08-21T11:12:25;97096.22;;;24.95;40.02
1401;BME280;46518;48.842;8.926;2022-08-21T11:15:00;97087.47;;;24.98;38.50
1401;BME280;46518;48.842;8.926;2022-08-21T11:17:34;97084.66;;;25.19;39.84
1401;BME280;46518;48.842;8.926;2022-08-21T11:20:08;97086.75;;;25.26;38.13
1401;BME280;46518;48.842;8.926;2022-08-21T11:22:45;97079.31;;;25.35;37.96
1401;BME280;46518;48.842;8.926;2022-08-21T11:25:23;97076.63;;;25.35;37.06
1401;BME280;46518;48.842;8.926;2022-08-21T11:28:06;97079.34;;;25.51;37.55
1401;BME280;46518;48.842;8.926;2022-08-21T11:30:47;97079.47;;;25.54;37.10
1401;BME280;46518;48.842;8.926;2022-08-21T11:33:36;97076.53;;;25.59;36.83
1401;BME280;46518;48.842;8.926;2022-08-21T11:36:15;97081.09;;;25.71;38.21
1401;BME280;46518;48.842;8.926;2022-08-21T11:38:52;97073.16;;;25.78;37.89
1401;BME280;46518;48.842;8.926;2022-08-21T11:41:28;97064.78;;;25.96;38.82
1401;BME280;46518;48.842;8.926;2022-08-21T11:44:05;97062.38;;;26.07;38.02
1401;BME280;46518;48.842;8.926;2022-08-21T11:46:46;97066.25;;;26.25;38.20
1401;BME280;46518;48.842;8.926;2022-08-21T11:49:26;97060.84;;;26.41;37.86
1401;BME280;46518;48.842;8.926;2022-08-21T11:52:07;97060.59;;;26.46;37.46
1401;BME280;46518;48.842;8.926;2022-08-21T11:54:42;97063.31;;;26.46;36.08
1401;BME280;46518;48.842;8.926;2022-08-21T11:57:17;97057.63;;;26.51;34.35
1401;BME280;46518;48.842;8.926;2022-08-21T11:59:52;97063.38;;;26.65;35.62
1401;BME280;46518;48.842;8.926;2022-08-21T12:02:24;97067.44;;;26.75;33.60
1401;BME280;46518;48.842;8.926;2022-08-21T12:05:01;97063.91;;;26.55;34.13
1401;BME280;46518;48.842;8.926;2022-08-21T12:07:39;97051.63;;;26.58;33.49
1401;BME280;46518;48.842;8.926;2022-08-21T12:10:12;97049.88;;;26.65;32.71
1401;BME280;46518;48.842;8.926;2022-08-21T12:12:42;97047.53;;;26.48;33.46
1401;BME280;46518;48.842;8.926;2022-08-21T12:15:23;97048.16;;;26.41;32.79
1401;BME280;46518;48.842;8.926;2022-08-21T12:17:56;97052.50;;;26.46;33.08
1401;BME280;46518;48.842;8.926;2022-08-21T12:20:57;97040.56;;;26.47;33.56
1401;BME280;46518;48.842;8.926;2022-08-21T12:23:29;97038.91;;;26.58;33.87
1401;BME280;46518;48.842;8.926;2022-08-21T12:26:20;97031.69;;;26.62;33.71
1401;BME280;46518;48.842;8.926;2022-08-21T12:28:50;97032.47;;;26.63;34.14
1401;BME280;46518;48.842;8.926;2022-08-21T12:31:24;97028.22;;;26.62;33.83
1401;BME280;46518;48.842;8.926;2022-08-21T12:33:58;97021.31;;;26.64;33.78
1401;BME280;46518;48.842;8.926;2022-08-21T12:36:40;97022.88;;;26.65;33.61
1401;BME280;46518;48.842;8.926;2022-08-21T12:39:15;97019.78;;;26.63;33.72
1401;BME280;46518;48.842;8.926;2022-08-21T12:46:51;97015.44;;;26.78;32.26
1401;BME280;46518;48.842;8.926;2022-08-21T12:49:27;97009.41;;;26.85;32.69
1401;BME280;46518;48.842;8.926;2022-08-21T12:56:56;97013.69;;;27.05;31.67
1401;BME280;46518;48.842;8.926;2022-08-21T12:59:24;97010.69;;;27.10;31.05
1401;BME280;46518;48.842;8.926;2022-08-21T13:01:54;97014.06;;;27.23;31.17
1401;BME280;46518;48.842;8.926;2022-08-21T13:04:31;97024.06;;;27.23;28.85
1401;BME280;46518;48.842;8.926;2022-08-21T13:07:05;97012.84;;;27.21;30.15
1401;BME280;46518;48.842;8.926;2022-08-21T13:09:42;97012.75;;;26.98;29.12
1401;BME280;46518;48.842;8.926;2022-08-21T13:12:12;97003.44;;;26.95;30.56
1401;BME280;46518;48.842;8.926;2022-08-21T13:14:44;97007.16;;;27.06;31.04
1401;BME280;46518;48.842;8.926;2022-08-21T13:17:18;96995.69;;;27.13;31.36
1401;BME280;46518;48.842;8.926;2022-08-21T13:19:57;97011.28;;;27.39;29.57
1401;BME280;46518;48.842;8.926;2022-08-21T13:22:26;97012.81;;;27.40;28.62
1401;BME280;46518;48.842;8.926;2022-08-21T13:25:01;97009.06;;;27.25;29.22
1401;BME280;46518;48.842;8.926;2022-08-21T13:27:33;97016.53;;;27.32;30.41
1401;BME280;46518;48.842;8.926;2022-08-21T13:30:06;97007.22;;;27.29;29.31
1401;BME280;46518;48.842;8.926;2022-08-21T13:32:40;97003.31;;;27.27;30.22
1401;BME280;46518;48.842;8.926;2022-08-21T13:35:16;97005.59;;;27.25;30.43
1401;BME280;46518;48.842;8.926;2022-08-21T13:37:47;97004.16;;;27.11;29.53
1401;BME280;46518;48.842;8.926;2022-08-21T13:40:19;96994.75;;;27.05;30.54
1401;BME280;46518;48.842;8.926;2022-08-21T13:42:48;96990.09;;;27.22;30.31
1401;BME280;46518;48.842;8.926;2022-08-21T13:45:23;96987.38;;;27.41;30.66
1401;BME280;46518;48.842;8.926;2022-08-21T13:47:53;96986.78;;;27.51;30.61